createdAt,value
2022-12-22T00:02:39.865Z,15.69
2022-12-22T00:05:41.473Z,15.69
2022-12-22T00:08:28.462Z,15.68
2022-12-22T00:11:15.828Z,15.69
2022-12-22T00:14:04.344Z,15.67
2022-12-22T00:16:53.075Z,15.67
2022-12-22T00:19:39.206Z,15.66
2022-12-22T00:22:51.776Z,15.67
2022-12-22T00:25:37.723Z,15.64
2022-12-22T00:28:32.785Z,15.63
2022-12-22T00:31:19.549Z,15.63
2022-12-22T00:34:05.990Z,15.63
2022-12-22T00:36:51.871Z,15.62
2022-12-22T00:39:37.997Z,15.63
2022-12-22T00:42:24.091Z,15.63
2022-12-22T00:45:10.366Z,15.63
2022-12-22T00:47:56.687Z,15.62
2022-12-22T00:50:50.624Z,15.61
2022-12-22T00:53:37.356Z,15.60
2022-12-22T00:56:25.128Z,15.60
2022-12-22T00:59:14.074Z,15.59
2022-12-22T01:02:00.783Z,15.58
2022-12-22T01:04:46.895Z,15.57
2022-12-22T01:07:34.531Z,15.58
2022-12-22T01:10:20.273Z,15.57
2022-12-22T01:13:06.238Z,15.55
2022-12-22T01:15:52.169Z,15.52
2022-12-22T01:18:38.395Z,15.51
2022-12-22T01:21:25.011Z,15.50
2022-12-22T01:24:11.211Z,15.50
2022-12-22T01:26:57.056Z,15.48
2022-12-22T01:29:43.098Z,15.47
2022-12-22T01:32:34.091Z,15.46
2022-12-22T01:35:20.177Z,15.44
2022-12-22T01:38:06.292Z,15.45
2022-12-22T01:40:53.412Z,15.43
2022-12-22T01:43:46.675Z,15.42
2022-12-22T01:46:44.382Z,15.42
2022-12-22T01:49:35.983Z,15.41
2022-12-22T01:52:23.471Z,15.40
2022-12-22T01:55:09.596Z,15.38
2022-12-22T01:57:56.248Z,15.39
2022-12-22T02:00:42.415Z,15.39
2022-12-22T02:03:40.760Z,15.39
2022-12-22T02:06:59.982Z,15.36
2022-12-22T02:10:05.384Z,15.37
2022-12-22T02:13:19.109Z,15.37
2022-12-22T02:16:11.311Z,15.34
2022-12-22T02:19:23.991Z,15.35
2022-12-22T02:22:43.522Z,15.33
2022-12-22T02:25:35.266Z,15.33
2022-12-22T02:28:22.914Z,15.33
2022-12-22T02:31:10.893Z,15.33
2022-12-22T02:33:57.212Z,15.32
2022-12-22T02:37:03.075Z,15.31
2022-12-22T02:39:52.297Z,15.30
2022-12-22T02:42:53.859Z,15.29
2022-12-22T02:46:01.904Z,15.29
2022-12-22T02:49:09.710Z,15.30
2022-12-22T02:52:03.116Z,15.30
2022-12-22T02:54:51.186Z,15.30
2022-12-22T02:57:37.831Z,15.28
2022-12-22T03:00:25.212Z,15.26
2022-12-22T03:03:12.336Z,15.27
2022-12-22T03:05:58.219Z,15.27
2022-12-22T03:08:44.600Z,15.27
2022-12-22T03:11:30.462Z,15.27
2022-12-22T03:14:16.568Z,15.26
2022-12-22T03:17:02.532Z,15.27
2022-12-22T03:19:49.345Z,15.26
2022-12-22T03:22:35.334Z,15.27
2022-12-22T03:25:21.859Z,15.26
2022-12-22T03:27:49.126Z,15.26
2022-12-22T03:30:16.715Z,15.27
2022-12-22T03:32:44.095Z,15.27
2022-12-22T03:35:11.652Z,15.25
2022-12-22T03:37:38.962Z,15.27
2022-12-22T03:40:07.812Z,15.25
2022-12-22T03:42:53.427Z,15.25
2022-12-22T03:45:41.317Z,15.25
2022-12-22T03:48:08.558Z,15.22
2022-12-22T03:50:36.150Z,15.23
2022-12-22T03:53:04.027Z,15.22
2022-12-22T03:55:31.989Z,15.21
2022-12-22T03:57:59.230Z,15.22
2022-12-22T04:00:26.862Z,15.22
2022-12-22T04:02:54.121Z,15.21
2022-12-22T04:05:21.808Z,15.20
2022-12-22T04:07:49.087Z,15.20
2022-12-22T04:10:35.358Z,15.22
2022-12-22T04:13:02.627Z,15.21
2022-12-22T04:15:32.295Z,15.22
2022-12-22T04:18:00.074Z,15.20
2022-12-22T04:20:28.200Z,15.19
2022-12-22T04:22:56.586Z,15.19
2022-12-22T04:25:26.230Z,15.17
2022-12-22T04:27:53.462Z,15.18
2022-12-22T04:30:21.019Z,15.18
2022-12-22T04:32:48.411Z,15.18
2022-12-22T04:35:16.312Z,15.18
2022-12-22T04:37:43.543Z,15.17
2022-12-22T04:40:11.174Z,15.16
2022-12-22T04:42:38.458Z,15.17
2022-12-22T04:45:06.706Z,15.17
2022-12-22T04:47:34.003Z,15.15
2022-12-22T04:50:01.639Z,15.16
2022-12-22T04:52:28.929Z,15.16
2022-12-22T04:54:56.809Z,15.15
2022-12-22T04:57:24.139Z,15.14
2022-12-22T04:59:51.637Z,15.15
2022-12-22T05:02:18.957Z,15.15
2022-12-22T05:04:46.507Z,15.14
2022-12-22T05:07:13.938Z,15.15
2022-12-22T05:09:41.445Z,15.15
2022-12-22T05:12:27.731Z,15.16
2022-12-22T05:14:55.427Z,15.14
2022-12-22T05:17:23.193Z,15.14
2022-12-22T05:19:50.724Z,15.12
2022-12-22T05:22:18.018Z,15.12
2022-12-22T05:24:45.547Z,15.13
2022-12-22T05:27:12.882Z,15.14
2022-12-22T05:29:40.413Z,15.13
2022-12-22T05:32:07.675Z,15.15
2022-12-22T05:34:35.544Z,15.16
2022-12-22T05:37:02.962Z,15.14
2022-12-22T05:39:31.085Z,15.15
2022-12-22T05:41:58.365Z,15.14
2022-12-22T05:44:25.935Z,15.14
2022-12-22T05:46:53.289Z,15.14
2022-12-22T05:49:20.890Z,15.13
2022-12-22T05:51:48.591Z,15.14
2022-12-22T05:54:16.173Z,15.14
2022-12-22T05:56:43.486Z,15.12
2022-12-22T05:59:12.027Z,15.13
2022-12-22T06:01:39.495Z,15.13
2022-12-22T06:04:07.516Z,15.13
2022-12-22T06:06:34.936Z,15.11
2022-12-22T06:09:02.573Z,15.12
2022-12-22T06:11:29.840Z,15.10
2022-12-22T06:13:57.361Z,15.08
2022-12-22T06:16:25.060Z,15.06
2022-12-22T06:18:52.570Z,15.06
2022-12-22T06:21:19.792Z,15.06
2022-12-22T06:23:47.330Z,15.04
2022-12-22T06:26:14.662Z,15.04
2022-12-22T06:28:42.982Z,15.03
2022-12-22T06:31:10.355Z,15.03
2022-12-22T06:33:37.978Z,15.01
2022-12-22T06:36:07.303Z,15.02
2022-12-22T06:38:35.380Z,15.00
2022-12-22T06:41:03.858Z,14.99
2022-12-22T06:43:31.655Z,14.98
2022-12-22T06:45:59.096Z,14.98
2022-12-22T06:48:26.619Z,14.99
2022-12-22T06:50:58.488Z,14.96
2022-12-22T06:53:26.992Z,14.96
2022-12-22T06:55:54.298Z,14.96
2022-12-22T06:58:21.863Z,14.96
2022-12-22T07:00:51.173Z,14.94
2022-12-22T07:03:18.872Z,14.95
2022-12-22T07:05:46.355Z,14.95
2022-12-22T07:08:13.966Z,14.94
2022-12-22T07:10:59.420Z,14.94
2022-12-22T07:13:29.941Z,14.93
2022-12-22T07:16:01.053Z,14.93
2022-12-22T07:18:32.539Z,14.93
2022-12-22T07:21:01.976Z,14.91
2022-12-22T07:23:30.206Z,14.92
2022-12-22T07:25:58.683Z,14.93
2022-12-22T07:28:26.528Z,14.94
2022-12-22T07:30:54.973Z,14.91
2022-12-22T07:33:22.892Z,14.91
2022-12-22T07:36:06.060Z,14.90
2022-12-22T07:38:40.045Z,14.90
2022-12-22T07:41:27.379Z,14.90
2022-12-22T07:43:56.901Z,14.89
2022-12-22T07:46:25.441Z,14.89
2022-12-22T07:49:11.908Z,14.89
2022-12-22T07:51:40.899Z,14.89
2022-12-22T07:54:10.549Z,14.90
2022-12-22T07:56:38.409Z,14.90
2022-12-22T07:59:06.036Z,14.90
2022-12-22T08:01:33.599Z,14.89
2022-12-22T08:04:01.309Z,14.91
2022-12-22T08:06:28.974Z,14.90
2022-12-22T08:08:56.482Z,14.90
2022-12-22T08:11:23.739Z,14.91
2022-12-22T08:13:55.811Z,14.91
2022-12-22T08:16:26.530Z,14.90
2022-12-22T08:18:54.100Z,14.90
2022-12-22T08:21:21.321Z,14.92
2022-12-22T08:23:48.910Z,14.91
2022-12-22T08:26:26.957Z,14.91
2022-12-22T08:29:01.804Z,14.90
2022-12-22T08:31:30.463Z,14.91
2022-12-22T08:34:00.548Z,14.93
2022-12-22T08:36:30.901Z,14.95
2022-12-22T08:38:58.897Z,14.94
2022-12-22T08:41:44.883Z,14.94
2022-12-22T08:44:12.439Z,14.96
2022-12-22T08:46:39.788Z,14.96
2022-12-22T08:49:07.448Z,14.96
2022-12-22T08:51:34.719Z,14.96
2022-12-22T08:54:05.059Z,14.95
2022-12-22T08:56:34.101Z,14.95
2022-12-22T08:59:05.464Z,14.96
2022-12-22T09:01:33.992Z,14.94
2022-12-22T09:04:02.177Z,14.94
2022-12-22T09:06:34.598Z,14.95
2022-12-22T09:09:09.286Z,14.95
2022-12-22T09:11:37.210Z,14.96
2022-12-22T09:14:05.205Z,14.94
2022-12-22T09:16:33.662Z,14.95
2022-12-22T09:19:02.156Z,14.94
2022-12-22T09:21:30.032Z,14.95
2022-12-22T09:23:58.341Z,14.95
2022-12-22T09:26:28.170Z,14.95
2022-12-22T09:28:56.693Z,14.94
2022-12-22T09:31:25.462Z,14.95
2022-12-22T09:33:53.824Z,14.95
2022-12-22T09:36:27.130Z,14.94
2022-12-22T09:38:54.785Z,14.95
2022-12-22T09:41:35.260Z,14.96
2022-12-22T09:44:05.492Z,14.96
2022-12-22T09:46:35.827Z,14.96
2022-12-22T09:49:06.492Z,14.98
2022-12-22T09:51:44.248Z,14.97
2022-12-22T09:54:13.732Z,14.98
2022-12-22T09:56:41.063Z,14.99
2022-12-22T09:59:12.686Z,14.98
2022-12-22T10:02:07.473Z,14.99
2022-12-22T10:04:54.220Z,14.99
2022-12-22T10:07:36.387Z,15.00
2022-12-22T10:10:42.659Z,14.98
2022-12-22T10:13:19.559Z,14.98
2022-12-22T10:15:47.794Z,14.99
2022-12-22T10:18:18.484Z,14.99
2022-12-22T10:21:12.056Z,15.00
2022-12-22T10:23:44.397Z,14.99
2022-12-22T10:26:33.765Z,14.99
2022-12-22T10:29:06.446Z,15.02
2022-12-22T10:31:36.843Z,15.03
2022-12-22T10:34:15.035Z,15.00
2022-12-22T10:36:56.508Z,15.00
2022-12-22T10:39:27.266Z,15.01
2022-12-22T10:42:08.961Z,15.02
2022-12-22T10:44:38.091Z,15.01
2022-12-22T10:47:19.476Z,15.02
2022-12-22T10:49:49.595Z,15.04
2022-12-22T10:52:25.600Z,15.04
2022-12-22T10:55:25.793Z,15.04
2022-12-22T10:58:14.364Z,15.04
2022-12-22T11:00:42.020Z,15.04
2022-12-22T11:03:11.995Z,15.02
2022-12-22T11:05:40.087Z,15.02
2022-12-22T11:08:20.947Z,15.06
2022-12-22T11:10:57.471Z,15.03
2022-12-22T11:13:59.248Z,15.07
2022-12-22T11:16:42.875Z,15.07
2022-12-22T11:19:41.093Z,15.09
2022-12-22T11:22:37.365Z,15.09
2022-12-22T11:25:33.061Z,15.10
2022-12-22T11:28:41.889Z,15.09
2022-12-22T11:31:35.961Z,15.09
2022-12-22T11:34:41.595Z,15.09
2022-12-22T11:37:48.641Z,15.09
2022-12-22T11:40:33.094Z,15.08
2022-12-22T11:43:23.233Z,15.09
2022-12-22T11:46:21.155Z,15.10
2022-12-22T11:49:07.058Z,15.09
2022-12-22T11:51:53.106Z,15.11
2022-12-22T11:54:45.225Z,15.12
2022-12-22T11:57:27.912Z,15.12
2022-12-22T12:00:03.915Z,15.11
2022-12-22T12:03:06.776Z,15.11
2022-12-22T12:05:59.372Z,15.11
2022-12-22T12:08:38.737Z,15.10
2022-12-22T12:11:21.336Z,15.11
2022-12-22T12:14:00.589Z,15.10
2022-12-22T12:16:39.514Z,15.11
2022-12-22T12:19:26.598Z,15.10
2022-12-22T12:21:57.919Z,15.09
2022-12-22T12:24:32.998Z,15.11
2022-12-22T12:27:43.857Z,15.10
2022-12-22T12:33:14.235Z,15.11
2022-12-22T12:35:59.065Z,15.12
2022-12-22T12:39:11.906Z,15.11
2022-12-22T12:42:03.440Z,15.12
2022-12-22T12:44:35.845Z,15.11
2022-12-22T12:47:25.882Z,15.11
2022-12-22T12:49:54.647Z,15.12
2022-12-22T12:52:40.235Z,15.10
2022-12-22T12:55:32.683Z,15.11
2022-12-22T12:58:03.348Z,15.10
2022-12-22T13:00:34.096Z,15.10
2022-12-22T13:06:49.751Z,15.11
2022-12-22T13:12:40.865Z,15.09
2022-12-22T13:15:26.343Z,15.06
2022-12-22T13:17:53.991Z,15.06
2022-12-22T13:20:29.678Z,15.05
2022-12-22T13:23:00.042Z,15.06
2022-12-22T13:25:35.854Z,15.04
2022-12-22T13:28:03.733Z,15.04
2022-12-22T13:30:31.594Z,15.03
2022-12-22T13:33:02.271Z,15.04
2022-12-22T13:35:38.611Z,15.02
2022-12-22T13:38:30.192Z,15.01
2022-12-22T13:41:04.370Z,15.02
2022-12-22T13:43:33.374Z,15.01
2022-12-22T13:46:02.846Z,15.00
2022-12-22T13:48:45.154Z,14.98
2022-12-22T13:51:40.985Z,14.98
2022-12-22T13:54:12.579Z,14.97
2022-12-22T13:56:41.388Z,14.97
2022-12-22T13:59:40.511Z,14.98
2022-12-22T14:02:07.784Z,14.96
2022-12-22T14:04:37.446Z,14.95
2022-12-22T14:07:12.662Z,14.95
2022-12-22T14:09:48.948Z,14.94
2022-12-22T14:12:24.966Z,14.94
2022-12-22T14:14:55.065Z,14.93
2022-12-22T14:17:29.876Z,14.93
2022-12-22T14:19:58.332Z,14.95
2022-12-22T14:22:36.307Z,14.93
2022-12-22T14:25:37.974Z,14.93
2022-12-22T14:28:39.229Z,14.93
2022-12-22T14:31:07.651Z,14.92
2022-12-22T14:33:35.421Z,14.91
2022-12-22T14:36:18.366Z,14.92
2022-12-22T14:38:50.841Z,14.92
2022-12-22T14:41:41.536Z,14.91
2022-12-22T14:44:29.177Z,14.91
2022-12-22T14:47:12.225Z,14.88
2022-12-22T14:49:51.776Z,14.89
2022-12-22T14:52:37.770Z,14.87
2022-12-22T14:55:20.858Z,14.87
2022-12-22T14:57:56.779Z,14.89
2022-12-22T15:00:24.202Z,14.90
2022-12-22T15:02:59.986Z,14.90
2022-12-22T15:05:28.996Z,14.90
2022-12-22T15:08:07.500Z,14.91
2022-12-22T15:10:44.194Z,14.93
2022-12-22T15:13:23.889Z,14.93
2022-12-22T15:15:52.118Z,14.95
2022-12-22T15:18:25.769Z,14.97
2022-12-22T15:20:56.057Z,14.99
2022-12-22T15:23:24.116Z,15.00
2022-12-22T15:25:51.907Z,15.02
2022-12-22T15:28:19.471Z,15.02
2022-12-22T15:30:46.791Z,15.03
2022-12-22T15:33:18.515Z,15.01
2022-12-22T15:35:46.926Z,15.02
2022-12-22T15:38:20.896Z,15.02
2022-12-22T15:40:48.574Z,15.02
2022-12-22T15:43:53.494Z,15.04
2022-12-22T15:46:06.059Z,15.07
2022-12-22T15:48:36.237Z,15.09
2022-12-22T15:51:05.757Z,15.12
2022-12-22T15:53:35.361Z,15.17
2022-12-22T15:56:03.276Z,15.20
2022-12-22T15:58:35.216Z,15.25
2022-12-22T16:01:02.590Z,15.28
2022-12-22T16:03:30.322Z,15.32
2022-12-22T16:05:58.081Z,15.37
2022-12-22T16:08:36.907Z,15.42
2022-12-22T16:11:06.738Z,15.48
2022-12-22T16:13:36.170Z,15.54
2022-12-22T16:16:03.887Z,15.59
2022-12-22T16:18:32.781Z,15.62
2022-12-22T16:21:07.740Z,15.69
2022-12-22T16:23:36.730Z,15.73
2022-12-22T16:26:05.090Z,15.81
2022-12-22T16:28:33.208Z,15.86
2022-12-22T16:31:01.298Z,15.94
2022-12-22T16:33:29.089Z,16.00
2022-12-22T16:35:56.356Z,16.04
2022-12-22T16:38:24.178Z,16.06
2022-12-22T16:40:53.353Z,16.10
2022-12-22T16:46:17.912Z,16.15
2022-12-22T16:49:07.662Z,16.18
2022-12-22T16:51:40.076Z,16.22
2022-12-22T16:54:14.800Z,16.24
2022-12-22T16:56:43.143Z,16.21
2022-12-22T16:59:10.771Z,16.17
2022-12-22T17:01:55.772Z,16.12
2022-12-22T17:04:32.025Z,16.14
2022-12-22T17:07:00.950Z,16.14
2022-12-22T17:09:48.022Z,16.12
2022-12-22T17:12:21.573Z,16.07
2022-12-22T17:14:50.535Z,16.11
2022-12-22T17:17:27.002Z,16.10
2022-12-22T17:19:59.726Z,16.11
2022-12-22T17:22:30.523Z,16.13
2022-12-22T17:25:02.176Z,16.12
2022-12-22T17:27:31.422Z,16.15
2022-12-22T17:30:03.100Z,16.13
2022-12-22T17:32:30.409Z,16.13
2022-12-22T17:34:58.006Z,16.13
2022-12-22T17:37:26.249Z,16.15
2022-12-22T17:40:00.016Z,16.14
2022-12-22T17:42:27.386Z,16.12
2022-12-22T17:44:55.041Z,16.11
2022-12-22T17:47:30.482Z,16.13
2022-12-22T17:49:59.986Z,16.11
2022-12-22T17:52:28.127Z,16.09
2022-12-22T17:54:56.078Z,16.11
2022-12-22T17:57:30.625Z,16.12
2022-12-22T17:59:58.204Z,16.10
2022-12-22T18:02:26.095Z,16.11
2022-12-22T18:04:53.815Z,16.10
2022-12-22T18:07:24.087Z,16.08
2022-12-22T18:09:59.029Z,16.06
2022-12-22T18:12:27.368Z,16.06
2022-12-22T18:14:54.900Z,16.06
2022-12-22T18:17:35.604Z,16.04
2022-12-22T18:20:03.955Z,16.06
2022-12-22T18:22:32.826Z,16.03
2022-12-22T18:25:00.610Z,16.05
2022-12-22T18:27:28.525Z,16.03
2022-12-22T18:29:56.186Z,16.02
2022-12-22T18:32:27.712Z,16.01
2022-12-22T18:34:55.574Z,15.99
2022-12-22T18:37:23.329Z,16.01
2022-12-22T18:39:50.864Z,16.06
2022-12-22T18:42:23.448Z,16.09
2022-12-22T18:44:51.633Z,16.08
2022-12-22T18:47:19.250Z,16.12
2022-12-22T18:49:47.084Z,16.13
2022-12-22T18:52:20.350Z,16.17
2022-12-22T18:54:49.423Z,16.21
2022-12-22T18:57:19.529Z,16.22
2022-12-22T18:59:48.728Z,16.25
2022-12-22T19:02:23.725Z,16.29
2022-12-22T19:04:51.856Z,16.29
2022-12-22T19:07:22.381Z,16.31
2022-12-22T19:09:50.979Z,16.34
2022-12-22T19:12:25.197Z,16.36
2022-12-22T19:14:58.624Z,16.39
2022-12-22T19:17:28.797Z,16.40
2022-12-22T19:19:57.372Z,16.42
2022-12-22T19:22:24.697Z,16.42
2022-12-22T19:24:52.235Z,16.46
2022-12-22T19:27:27.542Z,16.47
2022-12-22T19:30:03.409Z,16.47
2022-12-22T19:32:39.869Z,16.48
2022-12-22T19:35:19.860Z,16.49
2022-12-22T19:37:50.155Z,16.48
2022-12-22T19:40:19.654Z,16.50
2022-12-22T19:42:51.295Z,16.47
2022-12-22T19:45:23.907Z,16.49
2022-12-22T19:47:53.480Z,16.52
2022-12-22T19:50:24.443Z,16.53
2022-12-22T19:52:52.993Z,16.54
2022-12-22T19:55:21.871Z,16.55
2022-12-22T19:57:51.339Z,16.55
2022-12-22T20:00:24.337Z,16.55
2022-12-22T20:02:54.354Z,16.59
2022-12-22T20:05:22.075Z,16.58
2022-12-22T20:07:50.821Z,16.58
2022-12-22T20:10:19.988Z,16.59
2022-12-22T20:12:50.084Z,16.58
2022-12-22T20:15:34.696Z,16.62
2022-12-22T20:18:02.995Z,16.61
2022-12-22T20:20:36.648Z,16.59
2022-12-22T20:23:09.913Z,16.57
2022-12-22T20:25:46.785Z,16.56
2022-12-22T20:28:28.881Z,16.59
2022-12-22T20:30:57.755Z,16.58
2022-12-22T20:33:26.523Z,16.57
2022-12-22T20:35:56.702Z,16.55
2022-12-22T20:38:39.170Z,16.56
2022-12-22T20:41:08.828Z,16.57
2022-12-22T20:43:37.722Z,16.55
2022-12-22T20:46:18.388Z,16.54
2022-12-22T20:48:55.903Z,16.52
2022-12-22T20:51:27.149Z,16.52
2022-12-22T20:53:55.028Z,16.51
2022-12-22T20:56:32.200Z,16.53
2022-12-22T20:59:02.328Z,16.52
2022-12-22T21:01:30.722Z,16.50
2022-12-22T21:03:58.131Z,16.50
2022-12-22T21:06:29.347Z,16.48
2022-12-22T21:08:59.001Z,16.49
2022-12-22T21:11:28.269Z,16.48
2022-12-22T21:13:57.012Z,16.47
2022-12-22T21:16:27.525Z,16.44
2022-12-22T21:18:54.895Z,16.43
2022-12-22T21:21:22.939Z,16.42
2022-12-22T21:23:50.508Z,16.42
2022-12-22T21:26:29.671Z,16.41
2022-12-22T21:28:57.239Z,16.42
2022-12-22T21:31:25.308Z,16.40
2022-12-22T21:33:52.701Z,16.40
2022-12-22T21:36:27.805Z,16.39
2022-12-22T21:38:58.593Z,16.37
2022-12-22T21:41:44.803Z,16.38
2022-12-22T21:44:14.064Z,16.37
2022-12-22T21:46:44.448Z,16.36
2022-12-22T21:49:20.090Z,16.35
2022-12-22T21:51:49.037Z,16.36
2022-12-22T21:54:17.566Z,16.35
2022-12-22T21:56:47.698Z,16.31
2022-12-22T21:59:15.678Z,16.29
2022-12-22T22:01:44.962Z,16.27
2022-12-22T22:04:12.787Z,16.27
2022-12-22T22:06:40.493Z,16.24
2022-12-22T22:09:07.850Z,16.23
2022-12-22T22:11:55.910Z,16.21
2022-12-22T22:14:23.812Z,16.20
2022-12-22T22:16:51.753Z,16.20
2022-12-22T22:19:19.101Z,16.19
2022-12-22T22:21:46.867Z,16.20
2022-12-22T22:24:14.174Z,16.19
2022-12-22T22:26:45.058Z,16.20
2022-12-22T22:29:12.364Z,16.16
2022-12-22T22:31:40.622Z,16.19
2022-12-22T22:34:08.488Z,16.20
2022-12-22T22:36:36.090Z,16.21
2022-12-22T22:39:03.466Z,16.23
2022-12-22T22:41:35.233Z,16.26
2022-12-22T22:44:05.170Z,16.27
2022-12-22T22:46:32.832Z,16.28
2022-12-22T22:49:01.358Z,16.30
2022-12-22T22:51:29.122Z,16.36
2022-12-22T22:53:56.381Z,16.35
2022-12-22T22:56:23.970Z,16.35
2022-12-22T22:58:51.271Z,16.38
2022-12-22T23:01:18.980Z,16.37
2022-12-22T23:03:46.412Z,16.40
2022-12-22T23:06:14.228Z,16.38
2022-12-22T23:08:41.829Z,16.40
2022-12-22T23:11:14.219Z,16.42
2022-12-22T23:13:41.713Z,16.39
2022-12-22T23:16:10.058Z,16.39
2022-12-22T23:18:38.263Z,16.41
2022-12-22T23:21:07.733Z,16.42
2022-12-22T23:23:35.637Z,16.42
2022-12-22T23:26:03.870Z,16.41
2022-12-22T23:28:31.311Z,16.40
2022-12-22T23:30:59.519Z,16.41
2022-12-22T23:33:26.792Z,16.41
2022-12-22T23:35:54.379Z,16.40
2022-12-22T23:38:22.298Z,16.38
2022-12-22T23:40:53.009Z,16.42
2022-12-22T23:43:22.168Z,16.40
2022-12-22T23:45:49.899Z,16.40
2022-12-22T23:48:17.123Z,16.40
2022-12-22T23:50:48.688Z,16.38
2022-12-22T23:53:17.405Z,16.40
2022-12-22T23:55:48.638Z,16.37
2022-12-22T23:58:17.224Z,16.37
